Golden Airport
CYGE : now visible

Airfield :











YOU CAN JOIN US ON...

 
LOGIN :

Register | Disclaimer

   EN    FR    IT 

 









Legend :    VFR   Marginal VFR   IFR   Intensive IFR   Very Intensive IFR
Visi :
Ceiling :
>= 8 km
>= 3000ft
5 to 8 km
1000 to 3000 ft
1500m to 5 km
500 to 1000 ft
800 to 1500m
200 to 500 ft
< 800m
< 200 ft
Symbols :   Thunderstorms  Fog  Heavy snow  Heavy precipitations  Wind > 20 kt






- Airport Elevation : 2575 ft


CYGE - Golden

CURRENT METAR :
  • 112100Z 30006KT 270V010 20SM SCT075 BKN180 BKN240 23/08 A2973 RMK CU3AS2CS2 HALO SLP065 DENSITY ALT 4400FT

EXPIRED METARs :
  • 112000Z 00000KT 20SM SCT070 BKN160 BKN240 22/06 A2975 RMK CU3AS3CS1 HALO SLP071 DENSITY ALT 4300FT
  • 111900Z 11004KT 20SM FEW070 FEW150 BKN160 BKN250 21/07 A2977 RMK CU2AC1AS4CI1 AC TR SLP081 DENSITY ALT 4100FT

TAF N/A
CZVR FIR / North America



MET'MAP, your aeronautical weather chart ! - Copyright ORBIFLY December 2007 - Disclaimer

ORBIFLY MET'MAP TEAM :

Programming & Development : Alexandra Zaïnal
Concept & original design : Baudouin d'Aumeries
Assistance for programming : Marc-Olivier Méhu
Technical & hardware support : Manuel Goepfert

Contact : metmap@orbifly.com




SOURCES & CREDITS :

   NOAA       Earth
Advisory